createdAt,value
2023-02-15T00:00:01.198Z,62.52
2023-02-15T00:01:01.169Z,62.52
2023-02-15T00:02:01.206Z,62.36
2023-02-15T00:03:01.159Z,63.33
2023-02-15T00:04:01.140Z,63.16
2023-02-15T00:05:02.170Z,62.04
2023-02-15T00:06:01.359Z,62.68
2023-02-15T00:07:01.125Z,62.52
2023-02-15T00:08:01.115Z,62.68
2023-02-15T00:09:01.101Z,62.20
2023-02-15T00:10:01.140Z,62.36
2023-02-15T00:11:01.082Z,62.20
2023-02-15T00:12:02.068Z,62.20
2023-02-15T00:13:01.074Z,62.36
2023-02-15T00:14:01.072Z,62.68
2023-02-15T00:15:01.056Z,63.16
2023-02-15T00:16:01.370Z,63.00
2023-02-15T00:17:01.048Z,62.36
2023-02-15T00:18:01.012Z,62.36
2023-02-15T00:19:01.004Z,62.04
2023-02-15T00:20:01.027Z,62.04
2023-02-15T00:21:00.981Z,61.39
2023-02-15T00:22:00.972Z,63.00
2023-02-15T00:23:01.015Z,63.00
2023-02-15T00:24:00.961Z,62.84
2023-02-15T00:25:00.972Z,62.52
2023-02-15T00:26:01.230Z,61.07
2023-02-15T00:27:00.943Z,60.59
2023-02-15T00:28:00.922Z,61.71
2023-02-15T00:29:00.912Z,60.26
2023-02-15T00:30:00.942Z,60.75
2023-02-15T00:31:00.962Z,60.42
2023-02-15T00:32:00.894Z,59.94
2023-02-15T00:33:00.871Z,61.39
2023-02-15T00:34:00.865Z,62.52
2023-02-15T00:35:00.871Z,61.55
2023-02-15T00:36:01.149Z,61.55
2023-02-15T00:37:00.856Z,62.04
2023-02-15T00:38:00.837Z,62.20
2023-02-15T00:39:00.871Z,62.52
2023-02-15T00:40:00.849Z,60.75
2023-02-15T00:41:00.804Z,62.68
2023-02-15T00:42:00.799Z,60.59
2023-02-15T00:43:00.807Z,62.04
2023-02-15T00:44:00.779Z,61.23
2023-02-15T00:45:00.770Z,60.91
2023-02-15T00:46:01.163Z,61.55
2023-02-15T00:47:00.754Z,61.07
2023-02-15T00:48:00.751Z,63.16
2023-02-15T00:49:00.740Z,62.04
2023-02-15T00:50:01.742Z,62.84
2023-02-15T00:51:00.725Z,61.23
2023-02-15T00:52:00.722Z,62.84
2023-02-15T00:53:00.720Z,62.04
2023-02-15T00:54:00.700Z,60.91
2023-02-15T00:55:00.689Z,61.55
2023-02-15T00:56:01.141Z,61.39
2023-02-15T00:57:00.682Z,61.55
2023-02-15T00:58:00.656Z,60.59
2023-02-15T00:59:00.644Z,60.91
2023-02-15T01:00:00.646Z,60.91
2023-02-15T01:01:00.660Z,60.91
2023-02-15T01:02:00.617Z,60.10
2023-02-15T01:03:00.610Z,61.23
2023-02-15T01:04:00.623Z,60.42
2023-02-15T01:05:00.591Z,61.87
2023-02-15T01:06:00.902Z,61.55
2023-02-15T01:07:00.585Z,61.87
2023-02-15T01:08:00.585Z,62.20
2023-02-15T01:09:00.564Z,62.84
2023-02-15T01:10:00.552Z,61.39
2023-02-15T01:11:00.605Z,61.23
2023-02-15T01:12:00.541Z,61.87
2023-02-15T01:13:00.522Z,61.39
2023-02-15T01:14:00.534Z,61.39
2023-02-15T01:15:00.510Z,61.39
2023-02-15T01:16:00.939Z,61.87
2023-02-15T01:17:00.490Z,62.04
2023-02-15T01:18:00.483Z,62.04
2023-02-15T01:19:00.486Z,61.39
2023-02-15T01:20:00.465Z,61.07
2023-02-15T01:21:00.469Z,61.55
2023-02-15T01:22:00.466Z,62.20
2023-02-15T01:23:00.434Z,62.52
2023-02-15T01:24:00.431Z,62.52
2023-02-15T01:25:00.421Z,61.87
2023-02-15T01:26:00.764Z,61.71
2023-02-15T01:27:00.403Z,61.87
2023-02-15T01:28:00.381Z,62.04
2023-02-15T01:29:00.381Z,61.39
2023-02-15T01:30:00.403Z,62.84
2023-02-15T01:31:00.502Z,61.71
2023-02-15T01:32:00.481Z,61.39
2023-02-15T01:33:00.339Z,62.04
2023-02-15T01:34:00.340Z,61.87
2023-02-15T01:35:00.324Z,62.84
2023-02-15T01:36:00.754Z,62.20
2023-02-15T01:37:00.314Z,62.04
2023-02-15T01:38:00.305Z,61.87
2023-02-15T01:39:00.292Z,61.87
2023-02-15T01:40:00.281Z,61.23
2023-02-15T01:41:00.284Z,61.39
2023-02-15T01:42:00.270Z,62.04
2023-02-15T01:43:00.249Z,61.55
2023-02-15T01:44:00.278Z,61.23
2023-02-15T01:45:00.231Z,61.07
2023-02-15T01:46:00.827Z,61.55
2023-02-15T01:47:00.215Z,63.97
2023-02-15T01:48:00.222Z,62.20
2023-02-15T01:49:00.202Z,62.68
2023-02-15T01:50:00.220Z,61.71
2023-02-15T01:51:00.418Z,61.87
2023-02-15T01:52:00.168Z,61.23
2023-02-15T01:53:00.160Z,61.07
2023-02-15T01:54:00.185Z,61.87
2023-02-15T01:55:00.140Z,61.71
2023-02-15T01:56:00.548Z,61.39
2023-02-15T01:57:00.133Z,62.36
2023-02-15T01:58:00.112Z,61.87
2023-02-15T01:59:00.108Z,61.23
2023-02-15T02:00:00.149Z,63.00
2023-02-15T02:01:01.302Z,62.20
2023-02-15T02:02:01.091Z,61.07
2023-02-15T02:03:00.072Z,61.39
2023-02-15T02:04:00.061Z,61.87
2023-02-15T02:05:00.055Z,62.20
2023-02-15T02:06:00.500Z,61.55
2023-02-15T02:07:00.020Z,62.84
2023-02-15T02:08:00.009Z,63.16
2023-02-15T02:09:00.002Z,62.04
2023-02-15T02:10:00.002Z,62.20
2023-02-15T02:10:59.991Z,62.68
2023-02-15T02:11:59.973Z,61.55
2023-02-15T02:12:59.963Z,61.39
2023-02-15T02:13:59.959Z,61.55
2023-02-15T02:14:59.939Z,62.20
2023-02-15T02:16:00.413Z,61.87
2023-02-15T02:16:59.926Z,62.68
2023-02-15T02:17:59.911Z,62.68
2023-02-15T02:18:59.900Z,62.04
2023-02-15T02:19:59.888Z,61.87
2023-02-15T02:20:59.896Z,62.36
2023-02-15T02:21:59.906Z,62.04
2023-02-15T02:22:59.885Z,62.20
2023-02-15T02:23:59.865Z,62.52
2023-02-15T02:24:59.857Z,61.71
2023-02-15T02:26:00.244Z,62.68
2023-02-15T02:26:59.833Z,61.23
2023-02-15T02:27:59.816Z,60.91
2023-02-15T02:28:59.842Z,62.68
2023-02-15T02:29:59.851Z,62.04
2023-02-15T02:30:59.899Z,62.52
2023-02-15T02:31:59.822Z,62.36
2023-02-15T02:32:59.802Z,62.68
2023-02-15T02:33:59.776Z,61.39
2023-02-15T02:34:59.775Z,61.39
2023-02-15T02:36:00.185Z,60.91
2023-02-15T02:36:59.737Z,61.39
2023-02-15T02:37:59.727Z,63.49
2023-02-15T02:38:59.725Z,62.36
2023-02-15T02:39:59.711Z,62.20
2023-02-15T02:40:59.716Z,61.07
2023-02-15T02:41:59.708Z,61.71
2023-02-15T02:42:59.685Z,62.68
2023-02-15T02:43:59.683Z,62.04
2023-02-15T02:44:59.668Z,63.16
2023-02-15T02:45:59.871Z,62.84
2023-02-15T02:46:59.652Z,63.49
2023-02-15T02:47:59.641Z,62.84
2023-02-15T02:48:59.638Z,63.00
2023-02-15T02:49:59.620Z,62.68
2023-02-15T02:50:59.638Z,62.04
2023-02-15T02:51:59.608Z,62.04
2023-02-15T02:52:59.617Z,62.04
2023-02-15T02:53:59.587Z,63.00
2023-02-15T02:54:59.579Z,62.52
2023-02-15T02:55:59.843Z,63.00
2023-02-15T02:56:59.557Z,63.49
2023-02-15T02:57:59.558Z,64.45
2023-02-15T02:58:59.537Z,63.49
2023-02-15T02:59:59.537Z,63.33
2023-02-15T03:00:59.528Z,62.52
2023-02-15T03:01:59.548Z,62.04
2023-02-15T03:02:59.563Z,62.20
2023-02-15T03:03:59.502Z,62.20
2023-02-15T03:04:59.508Z,62.36
2023-02-15T03:05:59.751Z,63.16
2023-02-15T03:06:59.481Z,63.49
2023-02-15T03:07:59.458Z,63.00
2023-02-15T03:08:59.447Z,63.00
2023-02-15T03:09:59.443Z,61.55
2023-02-15T03:10:59.444Z,61.87
2023-02-15T03:11:59.424Z,62.36
2023-02-15T03:12:59.421Z,63.00
2023-02-15T03:13:59.404Z,65.26
2023-02-15T03:14:59.391Z,63.33
2023-02-15T03:16:00.872Z,65.10
2023-02-15T03:16:59.383Z,62.52
2023-02-15T03:17:59.384Z,63.49
2023-02-15T03:18:59.363Z,63.65
2023-02-15T03:19:59.349Z,62.52
2023-02-15T03:20:59.359Z,63.33
2023-02-15T03:21:59.338Z,62.20
2023-02-15T03:22:59.361Z,62.52
2023-02-15T03:23:59.322Z,61.87
2023-02-15T03:24:59.317Z,62.68
2023-02-15T03:25:59.661Z,62.04
2023-02-15T03:26:59.291Z,62.84
2023-02-15T03:27:59.284Z,63.00
2023-02-15T03:28:59.270Z,62.68
2023-02-15T03:29:59.289Z,63.49
2023-02-15T03:30:59.432Z,62.20
2023-02-15T03:31:59.385Z,63.00
2023-02-15T03:32:59.237Z,62.52
2023-02-15T03:33:59.225Z,63.16
2023-02-15T03:34:59.224Z,62.68
2023-02-15T03:35:59.276Z,62.52
2023-02-15T03:36:59.232Z,63.00
2023-02-15T03:37:59.195Z,63.00
2023-02-15T03:38:59.185Z,62.68
2023-02-15T03:39:59.176Z,62.36
2023-02-15T03:40:59.183Z,62.84
2023-02-15T03:41:59.165Z,62.52
2023-02-15T03:42:59.170Z,63.33
2023-02-15T03:43:59.166Z,63.81
2023-02-15T03:44:59.128Z,64.45
2023-02-15T03:45:59.556Z,63.16
2023-02-15T03:46:59.155Z,63.33
2023-02-15T03:47:59.101Z,63.33
2023-02-15T03:48:59.087Z,63.16
2023-02-15T03:49:59.077Z,64.94
2023-02-15T03:50:59.092Z,63.16
2023-02-15T03:51:59.068Z,64.45
2023-02-15T03:52:59.058Z,63.49
2023-02-15T03:53:59.047Z,63.49
2023-02-15T03:54:59.045Z,63.33
2023-02-15T03:55:59.061Z,63.33
2023-02-15T03:56:59.032Z,64.45
2023-02-15T03:57:59.018Z,63.97
2023-02-15T03:58:59.004Z,64.61
2023-02-15T03:59:59.017Z,63.16
2023-02-15T04:00:59.024Z,64.45
2023-02-15T04:01:58.998Z,64.78
2023-02-15T04:02:59.014Z,63.33
2023-02-15T04:03:58.965Z,63.49
2023-02-15T04:04:58.955Z,63.49
2023-02-15T04:05:59.223Z,62.68
2023-02-15T04:06:58.946Z,63.65
2023-02-15T04:07:58.932Z,62.36
2023-02-15T04:08:58.919Z,63.97
2023-02-15T04:09:58.939Z,63.16
2023-02-15T04:10:58.906Z,63.16
2023-02-15T04:11:58.906Z,63.97
2023-02-15T04:12:58.902Z,63.00
2023-02-15T04:13:58.882Z,64.61
2023-02-15T04:14:58.869Z,64.78
2023-02-15T04:15:59.025Z,64.78
2023-02-15T04:16:58.862Z,63.49
2023-02-15T04:17:58.853Z,63.49
2023-02-15T04:18:58.842Z,64.61
2023-02-15T04:19:58.824Z,63.49
2023-02-15T04:20:58.812Z,64.45
2023-02-15T04:21:58.825Z,64.45
2023-02-15T04:22:58.793Z,63.33
2023-02-15T04:23:58.783Z,63.97
2023-02-15T04:24:58.776Z,66.55
2023-02-15T04:25:58.845Z,63.97
2023-02-15T04:26:58.776Z,64.29
2023-02-15T04:27:58.750Z,63.65
2023-02-15T04:28:58.741Z,63.97
2023-02-15T04:29:58.791Z,63.97
2023-02-15T04:30:58.814Z,63.97
2023-02-15T04:31:58.787Z,64.61
2023-02-15T04:32:58.710Z,64.13
2023-02-15T04:33:58.695Z,64.13
2023-02-15T04:34:58.684Z,63.81
2023-02-15T04:35:58.741Z,64.45
2023-02-15T04:36:58.676Z,64.94
2023-02-15T04:37:58.664Z,63.81
2023-02-15T04:38:58.654Z,63.97
2023-02-15T04:39:58.658Z,64.13
2023-02-15T04:40:58.637Z,64.94
2023-02-15T04:41:58.633Z,63.97
2023-02-15T04:42:58.667Z,65.10
2023-02-15T04:43:58.604Z,65.26
2023-02-15T04:44:58.613Z,65.42
2023-02-15T04:45:58.616Z,64.61
2023-02-15T04:46:58.588Z,64.13
2023-02-15T04:47:58.571Z,66.39
2023-02-15T04:48:58.565Z,64.45
2023-02-15T04:49:58.555Z,65.90
2023-02-15T04:50:58.546Z,65.58
2023-02-15T04:51:58.544Z,64.78
2023-02-15T04:52:58.526Z,65.74
2023-02-15T04:53:58.527Z,65.74
2023-02-15T04:54:58.506Z,64.94
2023-02-15T04:55:58.498Z,66.39
2023-02-15T04:56:59.000Z,66.71
2023-02-15T04:57:58.481Z,64.45
2023-02-15T04:58:58.472Z,65.26
2023-02-15T04:59:58.457Z,65.10
2023-02-15T05:00:58.469Z,65.26
2023-02-15T05:01:58.503Z,65.26
2023-02-15T05:02:58.436Z,66.39
2023-02-15T05:03:58.440Z,65.42
2023-02-15T05:04:58.434Z,65.74
2023-02-15T05:05:58.413Z,66.23
2023-02-15T05:06:58.407Z,66.23
2023-02-15T05:07:58.390Z,65.74
2023-02-15T05:08:58.382Z,65.90
2023-02-15T05:09:58.372Z,68.80
2023-02-15T05:10:58.355Z,65.74
2023-02-15T05:11:58.371Z,66.23
2023-02-15T05:12:58.345Z,65.58
2023-02-15T05:13:58.344Z,66.06
2023-02-15T05:14:58.325Z,66.23
2023-02-15T05:15:58.323Z,66.39
2023-02-15T05:16:58.319Z,65.58
2023-02-15T05:17:58.307Z,65.58
2023-02-15T05:18:58.329Z,65.42
2023-02-15T05:19:58.305Z,65.74
2023-02-15T05:20:58.292Z,65.42
2023-02-15T05:21:58.277Z,65.74
2023-02-15T05:22:58.255Z,65.26
2023-02-15T05:23:58.248Z,65.10
2023-02-15T05:24:58.244Z,65.10
2023-02-15T05:25:58.235Z,66.06
2023-02-15T05:26:58.237Z,65.90
2023-02-15T05:27:58.221Z,66.39
2023-02-15T05:28:58.227Z,65.90
2023-02-15T05:29:58.360Z,67.19
2023-02-15T05:30:58.499Z,66.71
2023-02-15T05:31:58.362Z,66.71
2023-02-15T05:32:58.176Z,66.23
2023-02-15T05:33:58.169Z,66.71
2023-02-15T05:34:58.169Z,66.23
2023-02-15T05:35:58.143Z,66.23
2023-02-15T05:36:58.146Z,69.77
2023-02-15T05:37:58.157Z,65.74
2023-02-15T05:38:58.119Z,66.23
2023-02-15T05:39:58.109Z,65.90
2023-02-15T05:40:58.112Z,65.58
2023-02-15T05:41:58.115Z,66.06
2023-02-15T05:42:58.091Z,65.90
2023-02-15T05:43:58.078Z,64.94
2023-02-15T05:44:58.067Z,66.06
2023-02-15T05:45:58.104Z,66.06
2023-02-15T05:46:58.059Z,65.74
2023-02-15T05:47:58.041Z,66.06
2023-02-15T05:48:58.023Z,66.39
2023-02-15T05:49:58.040Z,66.55
2023-02-15T05:50:58.014Z,66.06
2023-02-15T05:51:58.025Z,65.90
2023-02-15T05:52:57.998Z,65.10
2023-02-15T05:53:57.996Z,64.61
2023-02-15T05:54:57.976Z,66.55
2023-02-15T05:55:57.969Z,66.23
2023-02-15T05:56:57.968Z,65.42
2023-02-15T05:57:57.949Z,65.26
2023-02-15T05:58:57.941Z,66.06
2023-02-15T05:59:57.931Z,65.26
2023-02-15T06:00:57.924Z,65.42
2023-02-15T06:01:57.923Z,65.42
2023-02-15T06:02:57.903Z,65.42
2023-02-15T06:03:57.901Z,64.61
2023-02-15T06:04:57.885Z,66.23
2023-02-15T06:05:57.881Z,65.74
2023-02-15T06:06:57.906Z,66.23
2023-02-15T06:07:57.861Z,65.58
2023-02-15T06:08:57.851Z,65.26
2023-02-15T06:09:57.835Z,63.65
2023-02-15T06:10:57.835Z,65.90
2023-02-15T06:11:57.839Z,65.74
2023-02-15T06:12:57.837Z,66.23
2023-02-15T06:13:57.820Z,67.19
2023-02-15T06:14:57.804Z,66.71
2023-02-15T06:15:57.834Z,67.03
2023-02-15T06:16:57.788Z,67.19
2023-02-15T06:17:57.765Z,66.23
2023-02-15T06:18:57.764Z,66.71
2023-02-15T06:19:57.750Z,65.74
2023-02-15T06:20:57.752Z,65.42
2023-02-15T06:21:57.752Z,64.94
2023-02-15T06:22:57.746Z,65.58
2023-02-15T06:23:57.725Z,66.23
2023-02-15T06:24:57.708Z,65.58
2023-02-15T06:25:57.726Z,64.61
2023-02-15T06:26:57.878Z,65.42
2023-02-15T06:27:57.680Z,65.58
2023-02-15T06:28:57.666Z,66.87
2023-02-15T06:29:57.707Z,66.23
2023-02-15T06:30:57.872Z,65.10
2023-02-15T06:31:57.792Z,64.94
2023-02-15T06:32:57.639Z,65.10
2023-02-15T06:33:57.628Z,65.74
2023-02-15T06:34:57.615Z,65.26
2023-02-15T06:35:57.675Z,65.42
2023-02-15T06:36:57.613Z,66.87
2023-02-15T06:37:57.594Z,65.42
2023-02-15T06:38:57.588Z,65.10
2023-02-15T06:39:57.570Z,65.58
2023-02-15T06:40:57.562Z,65.42
2023-02-15T06:41:57.564Z,66.06
2023-02-15T06:42:57.542Z,65.90
2023-02-15T06:43:57.541Z,65.42
2023-02-15T06:44:57.537Z,65.42
2023-02-15T06:45:57.565Z,65.74
2023-02-15T06:46:57.520Z,65.74
2023-02-15T06:47:57.502Z,65.42
2023-02-15T06:48:57.495Z,65.10
2023-02-15T06:49:57.484Z,64.45
2023-02-15T06:50:57.469Z,65.42
2023-02-15T06:51:57.493Z,65.42
2023-02-15T06:52:57.472Z,64.61
2023-02-15T06:53:57.449Z,67.19
2023-02-15T06:54:57.437Z,64.94
2023-02-15T06:55:57.426Z,64.13
2023-02-15T06:56:57.468Z,65.10
2023-02-15T06:57:57.430Z,66.71
2023-02-15T06:58:57.400Z,65.10
2023-02-15T06:59:57.393Z,64.94
2023-02-15T07:00:57.382Z,65.74
2023-02-15T07:01:57.531Z,65.10
2023-02-15T07:02:57.368Z,65.42
2023-02-15T07:03:57.357Z,64.94
2023-02-15T07:04:57.414Z,64.61
2023-02-15T07:05:57.346Z,63.97
2023-02-15T07:06:57.330Z,66.39
2023-02-15T07:07:57.332Z,64.61
2023-02-15T07:08:57.306Z,64.29
2023-02-15T07:09:57.299Z,64.45
2023-02-15T07:10:57.289Z,64.78
2023-02-15T07:11:57.279Z,65.10
2023-02-15T07:12:57.301Z,64.29
2023-02-15T07:13:57.282Z,64.61
2023-02-15T07:14:57.249Z,64.13
2023-02-15T07:15:57.286Z,64.61
2023-02-15T07:16:57.234Z,65.10
2023-02-15T07:17:57.233Z,64.29
2023-02-15T07:18:57.214Z,64.13
2023-02-15T07:19:57.214Z,64.94
2023-02-15T07:20:57.197Z,64.94
2023-02-15T07:21:57.212Z,65.74
2023-02-15T07:22:57.209Z,65.58
2023-02-15T07:23:57.178Z,63.97
2023-02-15T07:24:57.188Z,63.97
2023-02-15T07:25:57.151Z,64.45
2023-02-15T07:26:57.134Z,64.45
2023-02-15T07:27:58.147Z,64.61
2023-02-15T07:28:57.126Z,65.42
2023-02-15T07:29:57.130Z,63.97
2023-02-15T07:30:57.130Z,64.29
2023-02-15T07:31:57.137Z,63.97
2023-02-15T07:32:57.104Z,66.06
2023-02-15T07:33:57.083Z,64.29
2023-02-15T07:34:57.073Z,65.10
2023-02-15T07:35:57.068Z,64.29
2023-02-15T07:36:57.062Z,64.13
2023-02-15T07:37:57.056Z,66.23
2023-02-15T07:38:57.047Z,64.13
2023-02-15T07:39:57.030Z,63.81
2023-02-15T07:40:57.027Z,64.78
2023-02-15T07:41:57.020Z,64.45
2023-02-15T07:42:57.019Z,64.45
2023-02-15T07:43:56.999Z,65.10
2023-02-15T07:44:56.988Z,64.45
2023-02-15T07:45:56.987Z,64.61
2023-02-15T07:46:56.974Z,63.97
2023-02-15T07:47:56.976Z,63.97
2023-02-15T07:48:56.956Z,63.97
2023-02-15T07:49:56.945Z,63.49
2023-02-15T07:50:56.953Z,63.97
2023-02-15T07:51:56.941Z,64.94
2023-02-15T07:52:56.946Z,64.13
2023-02-15T07:53:56.912Z,64.61
2023-02-15T07:54:56.895Z,64.45
2023-02-15T07:55:56.895Z,64.13
2023-02-15T07:56:56.892Z,63.33
2023-02-15T07:57:56.906Z,63.65
2023-02-15T07:58:56.914Z,63.65
2023-02-15T07:59:56.866Z,63.00
2023-02-15T08:00:56.872Z,64.13
2023-02-15T08:01:56.844Z,64.45
2023-02-15T08:02:56.957Z,63.97
2023-02-15T08:03:56.902Z,63.49
2023-02-15T08:04:56.836Z,63.81
2023-02-15T08:05:56.794Z,63.81
2023-02-15T08:06:56.793Z,63.97
2023-02-15T08:07:56.792Z,64.29
2023-02-15T08:08:56.769Z,63.49
2023-02-15T08:09:56.762Z,64.29
2023-02-15T08:10:56.757Z,63.49
2023-02-15T08:11:56.755Z,63.49
2023-02-15T08:12:56.752Z,64.45
2023-02-15T08:13:56.734Z,64.29
2023-02-15T08:14:56.734Z,64.13
2023-02-15T08:15:56.728Z,63.65
2023-02-15T08:16:56.818Z,63.65
2023-02-15T08:17:56.706Z,63.16
2023-02-15T08:18:56.694Z,63.97
2023-02-15T08:19:56.692Z,63.65
2023-02-15T08:20:56.693Z,63.49
2023-02-15T08:21:56.669Z,63.97
2023-02-15T08:22:56.672Z,63.97
2023-02-15T08:23:56.646Z,63.81
2023-02-15T08:24:56.660Z,64.78
2023-02-15T08:25:56.630Z,63.81
2023-02-15T08:26:56.629Z,63.49
2023-02-15T08:27:56.623Z,63.49
2023-02-15T08:28:56.622Z,63.49
2023-02-15T08:29:56.627Z,63.16
2023-02-15T08:30:56.611Z,64.29
2023-02-15T08:31:56.667Z,63.49
2023-02-15T08:32:56.587Z,63.65
2023-02-15T08:33:56.555Z,68.96
2023-02-15T08:34:56.549Z,63.65
2023-02-15T08:35:56.543Z,64.94
2023-02-15T08:36:56.534Z,63.16
2023-02-15T08:37:56.554Z,63.33
2023-02-15T08:38:56.513Z,63.33
2023-02-15T08:39:56.524Z,63.49
2023-02-15T08:40:56.527Z,63.33
2023-02-15T08:41:56.492Z,63.81
2023-02-15T08:42:56.502Z,63.65
2023-02-15T08:43:56.488Z,63.33
2023-02-15T08:44:56.469Z,64.29
2023-02-15T08:45:56.523Z,63.49
2023-02-15T08:46:56.444Z,63.65
2023-02-15T08:47:56.450Z,63.49
2023-02-15T08:48:56.434Z,63.33
2023-02-15T08:49:56.444Z,63.16
2023-02-15T08:50:56.438Z,63.33
2023-02-15T08:51:56.406Z,63.00
2023-02-15T08:52:56.412Z,63.65
2023-02-15T08:53:56.389Z,63.33
2023-02-15T08:54:56.395Z,63.16
2023-02-15T08:55:56.369Z,64.13
2023-02-15T08:56:56.360Z,63.00
2023-02-15T08:57:56.367Z,62.68
2023-02-15T08:58:56.343Z,63.49
2023-02-15T08:59:56.334Z,63.97
2023-02-15T09:00:56.351Z,63.16
2023-02-15T09:01:56.382Z,63.49
2023-02-15T09:02:56.331Z,63.97
2023-02-15T09:03:56.296Z,63.65
2023-02-15T09:04:56.286Z,63.81
2023-02-15T09:05:56.284Z,63.49
2023-02-15T09:06:56.278Z,63.49
2023-02-15T09:07:56.267Z,63.00
2023-02-15T09:08:56.255Z,63.00
2023-02-15T09:09:56.257Z,63.16
2023-02-15T09:10:56.228Z,63.49
2023-02-15T09:11:59.378Z,63.33
2023-02-15T09:12:57.225Z,63.33
2023-02-15T09:13:56.232Z,63.81
2023-02-15T09:14:56.196Z,63.49
2023-02-15T09:15:56.184Z,63.33
2023-02-15T09:16:56.256Z,63.00
2023-02-15T09:17:56.195Z,63.16
2023-02-15T09:18:56.156Z,62.84
2023-02-15T09:19:56.145Z,63.16
2023-02-15T09:20:56.144Z,63.00
2023-02-15T09:21:56.137Z,63.00
2023-02-15T09:22:58.564Z,63.33
2023-02-15T09:23:57.124Z,62.52
2023-02-15T09:24:56.107Z,63.00
2023-02-15T09:25:56.090Z,62.36
2023-02-15T09:26:56.090Z,62.04
2023-02-15T09:27:56.085Z,62.84
2023-02-15T09:28:56.095Z,62.84
2023-02-15T09:29:56.070Z,63.00
2023-02-15T09:30:56.104Z,62.68
2023-02-15T09:31:56.099Z,62.84
2023-02-15T09:32:56.031Z,63.16
2023-02-15T09:33:56.063Z,62.36
2023-02-15T09:34:56.040Z,62.52
2023-02-15T09:35:56.010Z,62.84
2023-02-15T09:36:56.113Z,63.33
2023-02-15T09:37:55.988Z,62.68
2023-02-15T09:38:55.985Z,63.00
2023-02-15T09:39:56.978Z,63.00
2023-02-15T09:40:55.959Z,62.68
2023-02-15T09:41:55.961Z,62.20
2023-02-15T09:42:55.951Z,62.04
2023-02-15T09:43:55.944Z,62.68
2023-02-15T09:44:55.931Z,63.16
2023-02-15T09:45:55.925Z,62.52
2023-02-15T09:46:55.907Z,63.00
2023-02-15T09:47:55.906Z,62.04
2023-02-15T09:48:55.908Z,63.00
2023-02-15T09:49:55.889Z,63.00
2023-02-15T09:50:55.873Z,63.16
2023-02-15T09:51:55.862Z,62.68
2023-02-15T09:52:55.858Z,63.00
2023-02-15T09:53:55.859Z,62.04
2023-02-15T09:54:55.898Z,62.84
2023-02-15T09:55:55.829Z,62.68
2023-02-15T09:56:55.824Z,63.00
2023-02-15T09:57:55.815Z,62.20
2023-02-15T09:58:55.816Z,62.52
2023-02-15T09:59:55.800Z,62.04
2023-02-15T10:00:55.814Z,62.20
2023-02-15T10:01:55.833Z,62.04
2023-02-15T10:02:55.771Z,62.36
2023-02-15T10:03:55.775Z,63.00
2023-02-15T10:04:55.810Z,63.00
2023-02-15T10:05:55.744Z,62.20
2023-02-15T10:06:55.732Z,63.00
2023-02-15T10:07:55.727Z,63.16
2023-02-15T10:08:55.766Z,63.00
2023-02-15T10:09:55.732Z,62.84
2023-02-15T10:10:55.699Z,62.84
2023-02-15T10:11:55.691Z,62.84
2023-02-15T10:12:55.684Z,62.84
2023-02-15T10:13:55.683Z,62.04
2023-02-15T10:14:55.680Z,63.16
2023-02-15T10:15:55.668Z,63.49
2023-02-15T10:16:55.685Z,62.52
2023-02-15T10:17:55.638Z,62.36
2023-02-15T10:18:55.647Z,61.55
2023-02-15T10:19:55.622Z,61.55
2023-02-15T10:20:55.613Z,61.23
2023-02-15T10:21:55.602Z,62.04
2023-02-15T10:22:55.596Z,61.87
2023-02-15T10:23:55.601Z,61.71
2023-02-15T10:24:55.577Z,62.36
2023-02-15T10:25:55.579Z,61.71
2023-02-15T10:26:55.558Z,62.36
2023-02-15T10:27:55.552Z,62.68
2023-02-15T10:28:55.557Z,62.68
2023-02-15T10:29:55.550Z,62.04
2023-02-15T10:30:55.666Z,62.36
2023-02-15T10:31:55.673Z,62.68
2023-02-15T10:32:55.511Z,63.00
2023-02-15T10:33:55.512Z,61.39
2023-02-15T10:34:55.479Z,62.04
2023-02-15T10:35:56.494Z,62.68
2023-02-15T10:36:55.484Z,62.36
2023-02-15T10:37:55.487Z,62.52
2023-02-15T10:38:55.487Z,62.36
2023-02-15T10:39:55.455Z,62.20
2023-02-15T10:40:55.440Z,61.23
2023-02-15T10:41:55.424Z,61.87
2023-02-15T10:42:56.423Z,62.52
2023-02-15T10:43:55.425Z,62.20
2023-02-15T10:44:55.409Z,61.55
2023-02-15T10:45:55.450Z,61.39
2023-02-15T10:46:55.406Z,62.52
2023-02-15T10:47:55.378Z,62.20
2023-02-15T10:48:55.395Z,61.23
2023-02-15T10:49:55.362Z,61.71
2023-02-15T10:50:55.370Z,61.87
2023-02-15T10:51:55.351Z,62.04
2023-02-15T10:52:55.337Z,62.04
2023-02-15T10:53:55.341Z,62.04
2023-02-15T10:54:55.325Z,62.20
2023-02-15T10:55:55.341Z,61.87
2023-02-15T10:56:55.302Z,62.20
2023-02-15T10:57:55.299Z,61.39
2023-02-15T10:58:55.348Z,62.36
2023-02-15T10:59:55.276Z,61.55
2023-02-15T11:00:55.268Z,61.23
2023-02-15T11:01:55.372Z,62.04
2023-02-15T11:02:55.250Z,61.87
2023-02-15T11:03:55.256Z,61.07
2023-02-15T11:04:55.249Z,61.07
2023-02-15T11:05:55.222Z,60.26
2023-02-15T11:06:55.229Z,60.59
2023-02-15T11:07:55.198Z,61.23
2023-02-15T11:08:55.207Z,60.10
2023-02-15T11:09:55.179Z,61.23
2023-02-15T11:10:55.234Z,60.10
2023-02-15T11:11:55.187Z,61.55
2023-02-15T11:12:55.151Z,60.75
2023-02-15T11:13:55.161Z,61.23
2023-02-15T11:14:55.133Z,61.39
2023-02-15T11:15:55.204Z,60.59
2023-02-15T11:16:55.128Z,61.39
2023-02-15T11:17:55.110Z,60.42
2023-02-15T11:18:55.121Z,60.75
2023-02-15T11:19:55.093Z,62.84
2023-02-15T11:20:55.090Z,61.23
2023-02-15T11:21:56.098Z,61.39
2023-02-15T11:22:55.063Z,61.39
2023-02-15T11:23:55.085Z,61.07
2023-02-15T11:24:55.048Z,60.59
2023-02-15T11:25:55.040Z,61.55
2023-02-15T11:26:55.035Z,61.39
2023-02-15T11:27:55.035Z,60.10
2023-02-15T11:28:55.026Z,60.42
2023-02-15T11:29:55.041Z,61.39
2023-02-15T11:30:55.122Z,61.07
2023-02-15T11:31:55.117Z,60.91
2023-02-15T11:32:54.989Z,61.07
2023-02-15T11:33:54.983Z,60.75
2023-02-15T11:34:54.966Z,60.75
2023-02-15T11:35:54.957Z,60.91
2023-02-15T11:36:55.011Z,60.42
2023-02-15T11:37:54.938Z,59.94
2023-02-15T11:38:54.955Z,60.91
2023-02-15T11:39:54.932Z,60.59
2023-02-15T11:40:54.914Z,62.36
2023-02-15T11:41:54.938Z,61.71
2023-02-15T11:42:54.897Z,60.91
2023-02-15T11:43:54.915Z,60.26
2023-02-15T11:44:54.879Z,60.59
2023-02-15T11:45:54.949Z,62.20
2023-02-15T11:46:54.866Z,61.87
2023-02-15T11:47:54.871Z,61.39
2023-02-15T11:48:54.866Z,60.59
2023-02-15T11:49:54.845Z,60.10
2023-02-15T11:50:54.851Z,60.42
2023-02-15T11:51:54.821Z,60.75
2023-02-15T11:52:54.814Z,60.75
2023-02-15T11:53:54.816Z,60.91
2023-02-15T11:54:54.806Z,61.39
2023-02-15T11:55:54.797Z,60.26
2023-02-15T11:56:54.782Z,60.59
2023-02-15T11:57:54.783Z,62.68
2023-02-15T11:58:54.778Z,61.87
2023-02-15T11:59:54.837Z,61.07
2023-02-15T12:00:54.752Z,60.26
2023-02-15T12:01:54.738Z,61.39
2023-02-15T12:02:54.801Z,60.59
2023-02-15T12:03:54.796Z,59.94
2023-02-15T12:04:54.734Z,60.26
2023-02-15T12:05:54.702Z,60.59
2023-02-15T12:06:54.737Z,60.91
2023-02-15T12:07:54.685Z,60.26
2023-02-15T12:08:54.692Z,60.26
2023-02-15T12:09:54.692Z,60.26
2023-02-15T12:10:54.676Z,60.91
2023-02-15T12:11:54.654Z,60.42
2023-02-15T12:12:54.641Z,61.07
2023-02-15T12:13:54.709Z,60.59
2023-02-15T12:14:54.628Z,60.75
2023-02-15T12:15:54.676Z,60.91
2023-02-15T12:16:54.631Z,60.75
2023-02-15T12:17:54.603Z,60.59
2023-02-15T12:18:54.611Z,60.59
2023-02-15T12:19:54.588Z,60.10
2023-02-15T12:20:54.594Z,60.91
2023-02-15T12:21:54.565Z,60.91
2023-02-15T12:22:54.557Z,60.10
2023-02-15T12:23:54.561Z,61.23
2023-02-15T12:24:54.537Z,60.26
2023-02-15T12:25:54.553Z,59.46
2023-02-15T12:26:54.525Z,60.10
2023-02-15T12:27:54.514Z,61.39
2023-02-15T12:28:54.520Z,61.23
2023-02-15T12:29:54.540Z,61.23
2023-02-15T12:30:54.572Z,60.26
2023-02-15T12:31:54.621Z,61.23
2023-02-15T12:32:54.477Z,60.26
2023-02-15T12:33:54.493Z,60.91
2023-02-15T12:34:54.464Z,61.23
2023-02-15T12:35:54.454Z,60.10
2023-02-15T12:36:54.445Z,61.23
2023-02-15T12:37:54.430Z,60.59
2023-02-15T12:38:59.412Z,60.59
2023-02-15T12:39:56.421Z,61.23
2023-02-15T12:40:54.434Z,62.36
2023-02-15T12:41:54.426Z,60.91
2023-02-15T12:42:54.392Z,61.39
2023-02-15T12:43:54.401Z,60.10
2023-02-15T12:44:54.379Z,60.42
2023-02-15T12:45:54.379Z,60.10
2023-02-15T12:46:54.405Z,61.23
2023-02-15T12:47:54.353Z,60.91
2023-02-15T12:48:54.348Z,59.46
2023-02-15T12:49:54.345Z,60.42
2023-02-15T12:50:54.970Z,60.42
2023-02-15T12:51:55.325Z,59.30